Elk Park, North Carolina
Current Conditions -  °F | °C
As of 2:35 AM on Sunday 23 Nov 2014 (Local Time) from K0A9 Reporting Station
Clear Clear  
Wind Chill: 37°   Ceiling: Unl
Heat Index: 37°   Visibility: 10mi
Dew Point: 27°   Wind: 3mph
Humidity: 65%   Direction: 50°NE
Pressure: 30.19"   Gusts: NA
Location:  36.16°N, 81.98°W
Report Text: K0A9 230735Z AUTO 05003KT 10SM CLR 03/M03 A3019 RMK
Loading
Personal Weather Stations






























Interactive Weather Map New forecast layout! Learn more

10-Day Weather Forecast

Advertisements
Track Severe Weather on mobile